OOCL California — VRWC8 — position and weather

sailwx.info

Track history (hours):
 
Tides and Currents Weather Stations Pressure Air Temp Water Temp Dewpoint Dewpoint Depression Visibility Wind Speed Wind Dir Waves Ship Positions

OOCL California

Last reported at 2016-Aug-24 16:31 UTC. Time now 2016-Aug-25 08:05 UTC.
Position N 22°05' E 114°21'.

Length 276 m; beam 40 m; draft 14 m.

Type: Ship. MMSI: 477704000.

Date/timePositionNaut miles runAvg speedWind from/ knotsBaromVisibWave heightAir tempDewpointWater temp
2016-Aug-24 16:31N 22°05' E 114°21'2211.4
2016-Aug-24 14:34N 22°21' E 114°04'11 3.3
2016-Aug-24 11:09N 22°27' E 113°53'0 0.0
2016-Aug-24 10:33N 22°27' E 113°53'0 0.0
2016-Aug-24 09:33N 22°27' E 113°53'0 0.0
2016-Aug-24 08:21N 22°27' E 113°53'0 0.0
2016-Aug-24 07:33N 22°27' E 113°53'0 0.0
2016-Aug-24 06:33N 22°27' E 113°53'0 0.0
2016-Aug-24 04:33N 22°27' E 113°53'0 0.0
2016-Aug-24 03:33N 22°27' E 113°53'1 1.4
2016-Aug-24 02:33N 22°26' E 113°53'10 9.6
2016-Aug-24 01:33N 22°21' E 114°02'2310.0
2016-Aug-23 23:13N 22°08' E 114°23'23712.7
2016-Aug-23 04:33N 23°48' E 118°17'1413.3
2016-Aug-23 03:32N 23°56' E 118°28'1313.0
2016-Aug-23 02:31N 24°06' E 118°38'1413.4
2016-Aug-23 01:28N 24°15' E 118°50'1213.5
2016-Aug-23 00:33N 24°23' E 119°00'1513.7
2016-Aug-22 23:28N 24°32' E 119°13'1413.4
2016-Aug-22 22:28N 24°42' E 119°23'3013.3
2016-Aug-22 20:13N 25°01' E 119°49'31115.0
2016-Aug-21 23:33N 29°38' E 122°27'1515.1
2016-Aug-21 22:33N 29°48' E 122°14'1110.6
2016-Aug-21 21:33N 29°47' E 122°02'2 0.9
2016-Aug-21 19:33N 29°46' E 122°00'0 0.0
2016-Aug-21 18:33N 29°46' E 122°00'0 0.0
2016-Aug-21 17:32N 29°46' E 122°00'0 0.0
2016-Aug-21 16:33N 29°46' E 122°00'0 0.0
2016-Aug-21 15:33N 29°46' E 122°00'0 0.0
2016-Aug-21 14:33N 29°46' E 122°00'0 0.1
2016-Aug-21 13:32N 29°46' E 122°00'0 0.1
2016-Aug-21 12:33N 29°46' E 122°00'0 0.1
2016-Aug-21 11:32N 29°46' E 122°00'0 0.1
2016-Aug-21 10:33N 29°46' E 122°00'0 0.1
2016-Aug-21 09:33N 29°46' E 122°00'0 0.1
2016-Aug-21 08:34N 29°46' E 122°00'0 0.0
2016-Aug-21 07:32N 29°46' E 122°00'0 0.0
2016-Aug-21 06:33N 29°46' E 122°00'0 0.1
2016-Aug-21 05:32N 29°46' E 122°00'8 8.5
2016-Aug-21 04:33N 29°50' E 122°09'10 9.9
2016-Aug-21 03:33N 29°45' E 122°19'1313.2
2016-Aug-21 02:33N 29°45' E 122°34'10111.1
2016-Aug-20 17:29N 31°18' E 121°47'7 6.6
2016-Aug-20 16:23N 31°20' E 121°39'0 0.0
2016-Aug-20 15:33N 31°20' E 121°39'0 0.0
2016-Aug-20 14:33N 31°20' E 121°39'0 0.0
2016-Aug-20 13:33N 31°20' E 121°39'0 0.0
2016-Aug-20 12:30N 31°20' E 121°39'0 0.0
2016-Aug-20 11:32N 31°20' E 121°39'0 0.0
2016-Aug-20 10:31N 31°20' E 121°39'0 0.0
2016-Aug-20 09:33N 31°20' E 121°39'0 0.0
2016-Aug-20 08:28N 31°20' E 121°39'0 0.0
2016-Aug-20 07:33N 31°20' E 121°39'0 0.1
2016-Aug-20 06:33N 31°20' E 121°39'0 0.1
2016-Aug-20 05:33N 31°20' E 121°39'0 0.0
2016-Aug-20 04:33N 31°20' E 121°39'0 0.0
2016-Aug-20 03:31N 31°20' E 121°39'0 0.0
2016-Aug-20 02:33N 31°20' E 121°39'0 0.0
2016-Aug-20 01:33N 31°20' E 121°39'0 0.0
2016-Aug-20 00:33N 31°20' E 121°39'0 0.0
2016-Aug-19 23:33N 31°20' E 121°39'0 0.0
2016-Aug-19 22:33N 31°20' E 121°39'0 0.0
2016-Aug-19 21:30N 31°20' E 121°39'0 0.0
2016-Aug-19 20:33N 31°20' E 121°39'0 0.0
2016-Aug-19 19:33N 31°20' E 121°39'0 0.0
2016-Aug-19 18:29N 31°20' E 121°39'0 0.0
2016-Aug-19 17:33N 31°20' E 121°39'0 0.4
2016-Aug-19 16:33N 31°21' E 121°39'3 2.7
2016-Aug-19 15:33N 31°20' E 121°42'10 9.9
2016-Aug-19 14:32N 31°16' E 121°53'1212.3
2016-Aug-19 13:32N 31°13' E 122°07'1312.8
2016-Aug-19 12:33N 31°06' E 122°19'1611.0
2016-Aug-19 11:06N 31°07' E 122°38'812.8
2016-Aug-19 10:29N 31°06' E 122°47'40112.9
2016-Aug-18 03:20N 24°60' E 119°41'1615.4
2016-Aug-18 02:18N 24°47' E 119°30'1316.8
2016-Aug-18 01:30N 24°37' E 119°20'1919.8
2016-Aug-18 00:33N 24°26' E 119°03'1918.4
2016-Aug-17 23:33N 24°13' E 118°49'1616.6
2016-Aug-17 22:33N 24°03' E 118°35'1616.4
2016-Aug-17 21:33N 23°52' E 118°22'1615.7
2016-Aug-17 20:32N 23°41' E 118°09'1514.8
2016-Aug-17 19:32N 23°31' E 117°56'5914.7
2016-Aug-17 15:33N 22°58' E 117°04'1616.0
2016-Aug-17 14:31N 22°49' E 116°49'15314.0
2016-Aug-17 03:33N 22°19' E 114°06'2 0.2
2016-Aug-16 19:28N 22°21' E 114°07'3 3.7
2016-Aug-16 18:33N 22°17' E 114°06'79718.7
2016-Aug-15 00:00N 09°36' E 110°00'   230 / 441004.010.8 1.529.026.332.0
Track history (hours):
 
Tides and Currents Weather Stations Pressure Air Temp Water Temp Dewpoint Dewpoint Depression Visibility Wind Speed Wind Dir Waves Ship Positions

OOCL California

Last reported at 2016-Aug-24 16:31 UTC. Time now 2016-Aug-25 08:05 UTC.
Position N 22°05' E 114°21'.

Length 276 m; beam 40 m; draft 14 m.

Type: Ship. MMSI: 477704000.

Date/timePositionNaut miles runAvg speedWind from/ knotsBaromVisibWave heightAir tempDewpointWater temp
2016-Aug-24 16:31N 22°05' E 114°21'2211.4
2016-Aug-24 14:34N 22°21' E 114°04'11 3.3
2016-Aug-24 11:09N 22°27' E 113°53'0 0.0
2016-Aug-24 10:33N 22°27' E 113°53'0 0.0
2016-Aug-24 09:33N 22°27' E 113°53'0 0.0
2016-Aug-24 08:21N 22°27' E 113°53'0 0.0
2016-Aug-24 07:33N 22°27' E 113°53'0 0.0
2016-Aug-24 06:33N 22°27' E 113°53'0 0.0
2016-Aug-24 04:33N 22°27' E 113°53'0 0.0
2016-Aug-24 03:33N 22°27' E 113°53'1 1.4
2016-Aug-24 02:33N 22°26' E 113°53'10 9.6
2016-Aug-24 01:33N 22°21' E 114°02'2310.0
2016-Aug-23 23:13N 22°08' E 114°23'23712.7
2016-Aug-23 04:33N 23°48' E 118°17'1413.3
2016-Aug-23 03:32N 23°56' E 118°28'1313.0
2016-Aug-23 02:31N 24°06' E 118°38'1413.4
2016-Aug-23 01:28N 24°15' E 118°50'1213.5
2016-Aug-23 00:33N 24°23' E 119°00'1513.7
2016-Aug-22 23:28N 24°32' E 119°13'1413.4
2016-Aug-22 22:28N 24°42' E 119°23'3013.3
2016-Aug-22 20:13N 25°01' E 119°49'31115.0
2016-Aug-21 23:33N 29°38' E 122°27'1515.1
2016-Aug-21 22:33N 29°48' E 122°14'1110.6
2016-Aug-21 21:33N 29°47' E 122°02'2 0.9
2016-Aug-21 19:33N 29°46' E 122°00'0 0.0
2016-Aug-21 18:33N 29°46' E 122°00'0 0.0
2016-Aug-21 17:32N 29°46' E 122°00'0 0.0
2016-Aug-21 16:33N 29°46' E 122°00'0 0.0
2016-Aug-21 15:33N 29°46' E 122°00'0 0.0
2016-Aug-21 14:33N 29°46' E 122°00'0 0.1
2016-Aug-21 13:32N 29°46' E 122°00'0 0.1
2016-Aug-21 12:33N 29°46' E 122°00'0 0.1
2016-Aug-21 11:32N 29°46' E 122°00'0 0.1
2016-Aug-21 10:33N 29°46' E 122°00'0 0.1
2016-Aug-21 09:33N 29°46' E 122°00'0 0.1
2016-Aug-21 08:34N 29°46' E 122°00'0 0.0
2016-Aug-21 07:32N 29°46' E 122°00'0 0.0
2016-Aug-21 06:33N 29°46' E 122°00'0 0.1
2016-Aug-21 05:32N 29°46' E 122°00'8 8.5
2016-Aug-21 04:33N 29°50' E 122°09'10 9.9
2016-Aug-21 03:33N 29°45' E 122°19'1313.2
2016-Aug-21 02:33N 29°45' E 122°34'10111.1
2016-Aug-20 17:29N 31°18' E 121°47'7 6.6
2016-Aug-20 16:23N 31°20' E 121°39'0 0.0
2016-Aug-20 15:33N 31°20' E 121°39'0 0.0
2016-Aug-20 14:33N 31°20' E 121°39'0 0.0
2016-Aug-20 13:33N 31°20' E 121°39'0 0.0
2016-Aug-20 12:30N 31°20' E 121°39'0 0.0
2016-Aug-20 11:32N 31°20' E 121°39'0 0.0
2016-Aug-20 10:31N 31°20' E 121°39'0 0.0
2016-Aug-20 09:33N 31°20' E 121°39'0 0.0
2016-Aug-20 08:28N 31°20' E 121°39'0 0.0
2016-Aug-20 07:33N 31°20' E 121°39'0 0.1
2016-Aug-20 06:33N 31°20' E 121°39'0 0.1
2016-Aug-20 05:33N 31°20' E 121°39'0 0.0
2016-Aug-20 04:33N 31°20' E 121°39'0 0.0
2016-Aug-20 03:31N 31°20' E 121°39'0 0.0
2016-Aug-20 02:33N 31°20' E 121°39'0 0.0
2016-Aug-20 01:33N 31°20' E 121°39'0 0.0
2016-Aug-20 00:33N 31°20' E 121°39'0 0.0
2016-Aug-19 23:33N 31°20' E 121°39'0 0.0
2016-Aug-19 22:33N 31°20' E 121°39'0 0.0
2016-Aug-19 21:30N 31°20' E 121°39'0 0.0
2016-Aug-19 20:33N 31°20' E 121°39'0 0.0
2016-Aug-19 19:33N 31°20' E 121°39'0 0.0
2016-Aug-19 18:29N 31°20' E 121°39'0 0.0
2016-Aug-19 17:33N 31°20' E 121°39'0 0.4
2016-Aug-19 16:33N 31°21' E 121°39'3 2.7
2016-Aug-19 15:33N 31°20' E 121°42'10 9.9
2016-Aug-19 14:32N 31°16' E 121°53'1212.3
2016-Aug-19 13:32N 31°13' E 122°07'1312.8
2016-Aug-19 12:33N 31°06' E 122°19'1611.0
2016-Aug-19 11:06N 31°07' E 122°38'812.8
2016-Aug-19 10:29N 31°06' E 122°47'40112.9
2016-Aug-18 03:20N 24°60' E 119°41'1615.4
2016-Aug-18 02:18N 24°47' E 119°30'1316.8
2016-Aug-18 01:30N 24°37' E 119°20'1919.8
2016-Aug-18 00:33N 24°26' E 119°03'1918.4
2016-Aug-17 23:33N 24°13' E 118°49'1616.6
2016-Aug-17 22:33N 24°03' E 118°35'1616.4
2016-Aug-17 21:33N 23°52' E 118°22'1615.7
2016-Aug-17 20:32N 23°41' E 118°09'1514.8
2016-Aug-17 19:32N 23°31' E 117°56'5914.7
2016-Aug-17 15:33N 22°58' E 117°04'1616.0
2016-Aug-17 14:31N 22°49' E 116°49'15314.0
2016-Aug-17 03:33N 22°19' E 114°06'2 0.2
2016-Aug-16 19:28N 22°21' E 114°07'3 3.7
2016-Aug-16 18:33N 22°17' E 114°06'79718.7
2016-Aug-15 00:00N 09°36' E 110°00'   230 / 441004.010.8 1.529.026.332.0

Dump ship's entire track history